Time;durP1;ratioP1;P1;durP2;ratioP2;P2;SDS_P1;SDS_P2;PMS_P1;PMS_P2;Temp;Humidity;BMP_temperature;BMP_pressure;BME280_temperature;BME280_humidity;BME280_pressure;Samples;Min_cycle;Max_cycle;Signal;HPM_P1;HPM_P2
2021/07/13 00:01:22;;;;;;;0.70;0.50;;;22.00;63.60;;;;;;5061650;28;20037;-35
2021/07/13 00:03:48;;;;;;;0.80;0.40;;;22.00;65.50;;;;;;5062135;28;20532;-30
2021/07/13 00:06:14;;;;;;;0.45;0.38;;;22.00;64.20;;;;;;5056064;28;20021;-30
2021/07/13 00:08:40;;;;;;;0.82;0.60;;;22.00;64.90;;;;;;5065149;28;20032;-29
2021/07/13 00:11:06;;;;;;;0.43;0.40;;;22.00;64.10;;;;;;5062516;28;20045;-29
2021/07/13 00:13:31;;;;;;;0.40;0.40;;;21.90;64.10;;;;;;5056155;28;20509;-31
2021/07/13 00:15:57;;;;;;;1.10;0.68;;;21.90;64.10;;;;;;5066774;28;20040;-29
2021/07/13 00:18:22;;;;;;;0.65;0.65;;;21.90;64.60;;;;;;5070827;28;20151;-34
2021/07/13 00:20:48;;;;;;;1.05;0.52;;;21.90;64.10;;;;;;5068794;28;20433;-28
2021/07/13 00:23:13;;;;;;;0.50;0.50;;;21.90;64.50;;;;;;5067882;28;20054;-29
2021/07/13 00:25:39;;;;;;;0.52;0.40;;;22.00;64.10;;;;;;5067669;28;20047;-32
2021/07/13 00:28:05;;;;;;;0.52;0.52;;;21.90;63.90;;;;;;5068670;28;20029;-33
2021/07/13 00:30:30;;;;;;;0.85;0.60;;;21.90;63.40;;;;;;5068929;28;20449;-35
2021/07/13 00:32:56;;;;;;;0.60;0.60;;;21.90;63.60;;;;;;5069609;28;20033;-32
2021/07/13 00:35:22;;;;;;;0.55;0.40;;;21.90;64.10;;;;;;5067120;28;20025;-30
2021/07/13 00:37:48;;;;;;;0.73;0.73;;;21.90;64.50;;;;;;5067869;28;20039;-32
2021/07/13 00:40:17;;;;;;;0.40;0.30;;;21.90;63.80;;;;;;5068759;28;20075;-28
2021/07/13 00:42:46;;;;;;;0.80;0.75;;;22.00;65.30;;;;;;5053097;28;20399;-35
2021/07/13 00:45:12;;;;;;;0.77;0.77;;;21.90;65.40;;;;;;5065743;28;20076;-28
2021/07/13 00:47:38;;;;;;;0.65;0.40;;;21.90;65.10;;;;;;5065930;28;20024;-30
2021/07/13 00:50:04;;;;;;;0.43;0.40;;;21.90;64.40;;;;;;5064676;28;20041;-35
2021/07/13 00:52:29;;;;;;;0.40;0.40;;;21.90;64.40;;;;;;5059266;28;20124;-33
2021/07/13 00:54:55;;;;;;;0.40;0.40;;;21.90;64.60;;;;;;5055338;28;20108;-31
2021/07/13 00:57:20;;;;;;;1.20;0.50;;;21.90;64.80;;;;;;5039448;28;20037;-33
2021/07/13 00:59:47;;;;;;;0.50;0.40;;;21.90;64.10;;;;;;5059162;28;20061;-28
2021/07/13 01:02:13;;;;;;;0.30;0.30;;;21.90;63.40;;;;;;5059299;28;20024;-31
2021/07/13 01:04:50;;;;;;;0.50;0.50;;;21.90;64.10;;;;;;5058813;28;20543;-32
2021/07/13 01:07:24;;;;;;;0.50;0.50;;;21.90;65.10;;;;;;5041894;28;20073;-33
2021/07/13 01:09:56;;;;;;;;;;;21.90;64.70;;;;;;5062716;28;20021;-31
2021/07/13 01:12:40;;;;;;;0.40;0.40;;;21.90;63.80;;;;;;5069671;28;20361;-30
2021/07/13 01:15:06;;;;;;;0.57;0.57;;;21.90;64.50;;;;;;5042038;28;20036;-35
2021/07/13 01:17:40;;;;;;;1.30;0.60;;;21.80;63.60;;;;;;5058434;28;20116;-30
2021/07/13 01:20:06;;;;;;;0.57;0.57;;;21.90;63.50;;;;;;5042066;28;20390;-33
2021/07/13 01:22:37;;;;;;;0.52;0.52;;;21.90;64.40;;;;;;5059461;28;20271;-34
2021/07/13 01:25:14;;;;;;;0.55;0.55;;;21.80;64.20;;;;;;5054832;28;20024;-35
2021/07/13 01:27:55;;;;;;;1.20;0.68;;;21.80;63.90;;;;;;5037786;28;20036;-30
2021/07/13 01:30:28;;;;;;;1.00;0.60;;;21.90;63.80;;;;;;5069301;28;20029;-30
2021/07/13 01:33:08;;;;;;;0.60;0.60;;;21.80;63.80;;;;;;5052325;28;20028;-38
2021/07/13 01:35:41;;;;;;;0.47;0.35;;;21.80;64.00;;;;;;5066110;28;20037;-32
2021/07/13 01:38:09;;;;;;;0.60;0.60;;;21.80;64.30;;;;;;5066876;28;20562;-30
2021/07/13 01:40:35;;;;;;;0.40;0.40;;;21.80;63.90;;;;;;5049151;28;20072;-35
2021/07/13 01:43:00;;;;;;;0.40;0.40;;;21.80;64.40;;;;;;5035328;28;20515;-32
2021/07/13 01:45:26;;;;;;;0.60;0.60;;;21.80;64.10;;;;;;5040314;28;20717;-32
2021/07/13 01:47:52;;;;;;;0.70;0.60;;;21.80;64.30;;;;;;5040386;28;20113;-29
2021/07/13 01:50:18;;;;;;;1.50;0.70;;;21.80;63.20;;;;;;5040472;28;20524;-32
2021/07/13 01:52:44;;;;;;;1.25;0.70;;;21.80;64.30;;;;;;5040420;28;20025;-30
2021/07/13 01:55:10;;;;;;;0.63;0.40;;;21.80;64.40;;;;;;5038109;28;20482;-35
2021/07/13 01:57:35;;;;;;;0.50;0.50;;;21.80;64.30;;;;;;5021869;28;20036;-29
2021/07/13 02:00:02;;;;;;;0.43;0.38;;;21.80;64.40;;;;;;5039415;28;20021;-29
2021/07/13 02:02:28;;;;;;;0.50;0.50;;;21.80;64.40;;;;;;5058612;28;20041;-38
2021/07/13 02:04:54;;;;;;;0.40;0.40;;;21.80;64.30;;;;;;5057155;28;20029;-28
2021/07/13 02:07:20;;;;;;;0.40;0.40;;;21.80;64.00;;;;;;5037061;28;20104;-36
2021/07/13 02:09:45;;;;;;;1.77;0.60;;;21.80;64.70;;;;;;5052233;28;20116;-31
2021/07/13 02:12:11;;;;;;;0.65;0.60;;;21.80;64.10;;;;;;5050372;28;20554;-31
2021/07/13 02:14:36;;;;;;;0.70;0.70;;;21.80;65.30;;;;;;5064913;28;20554;-28
2021/07/13 02:17:03;;;;;;;0.65;0.60;;;21.80;64.30;;;;;;5047358;28;20498;-35
2021/07/13 02:19:29;;;;;;;0.60;0.60;;;21.80;64.20;;;;;;5064076;28;20122;-32
2021/07/13 02:21:57;;;;;;;0.50;0.50;;;21.80;65.10;;;;;;5069615;28;20128;-30
2021/07/13 02:24:23;;;;;;;0.50;0.50;;;21.80;64.40;;;;;;5068556;28;20036;-33
2021/07/13 02:26:54;;;;;;;0.50;0.50;;;21.80;64.80;;;;;;5066344;28;20040;-33
2021/07/13 02:29:27;;;;;;;0.50;0.50;;;21.80;64.60;;;;;;5065756;28;20029;-32
2021/07/13 02:31:58;;;;;;;0.40;0.40;;;21.80;64.70;;;;;;5065351;28;20212;-33
2021/07/13 02:34:27;;;;;;;0.77;0.77;;;21.80;64.40;;;;;;5049391;28;20024;-33
2021/07/13 02:36:52;;;;;;;0.70;0.50;;;21.80;64.10;;;;;;5052895;28;20032;-31
2021/07/13 02:39:19;;;;;;;0.52;0.52;;;21.80;64.70;;;;;;5038573;28;20025;-35
2021/07/13 02:41:45;;;;;;;0.50;0.50;;;21.80;64.80;;;;;;5065917;28;20397;-34
2021/07/13 02:44:11;;;;;;;0.50;0.50;;;21.80;65.50;;;;;;5046459;28;20044;-34
2021/07/13 02:46:41;;;;;;;0.52;0.50;;;21.80;64.90;;;;;;5037637;28;20025;-33
2021/07/13 02:49:08;;;;;;;0.50;0.50;;;21.80;64.70;;;;;;5032522;28;20060;-34
2021/07/13 02:51:33;;;;;;;0.40;0.40;;;21.80;64.90;;;;;;5032685;28;20029;-31
2021/07/13 02:53:59;;;;;;;0.30;0.30;;;21.80;65.30;;;;;;5033943;28;20029;-35
2021/07/13 02:56:25;;;;;;;0.40;0.40;;;21.80;65.10;;;;;;5047155;28;20086;-31
2021/07/13 02:58:50;;;;;;;0.50;0.50;;;21.80;65.50;;;;;;5047565;28;20067;-33
2021/07/13 03:01:16;;;;;;;0.60;0.60;;;21.80;65.90;;;;;;5048109;28;20048;-36
2021/07/13 03:03:42;;;;;;;0.60;0.60;;;21.80;65.00;;;;;;5068170;28;20509;-27
2021/07/13 03:06:08;;;;;;;0.47;0.47;;;21.80;65.10;;;;;;5067225;28;20024;-30
2021/07/13 03:08:34;;;;;;;0.40;0.35;;;21.80;65.40;;;;;;5065165;28;20032;-31
2021/07/13 03:10:59;;;;;;;0.50;0.50;;;21.70;65.50;;;;;;5063692;28;20105;-33
2021/07/13 03:13:25;;;;;;;0.43;0.43;;;21.80;66.30;;;;;;5062967;28;20082;-32
2021/07/13 03:15:51;;;;;;;0.40;0.40;;;21.80;65.70;;;;;;5066306;28;20040;-32
2021/07/13 03:18:17;;;;;;;0.90;0.50;;;21.80;65.90;;;;;;5038333;28;20021;-30
2021/07/13 03:20:44;;;;;;;1.55;0.40;;;21.80;66.00;;;;;;5057614;28;20489;-30
2021/07/13 03:23:09;;;;;;;1.50;0.43;;;21.80;66.20;;;;;;5038833;28;20028;-39
2021/07/13 03:25:36;;;;;;;0.38;0.38;;;21.80;66.20;;;;;;5037661;28;20033;-31
2021/07/13 03:28:02;;;;;;;0.40;0.40;;;21.80;65.80;;;;;;5067237;28;20021;-28
2021/07/13 03:30:28;;;;;;;1.20;0.68;;;21.80;66.10;;;;;;5050157;28;20409;-33
2021/07/13 03:32:53;;;;;;;0.60;0.60;;;21.80;65.70;;;;;;5048358;28;20742;-31
2021/07/13 03:35:20;;;;;;;0.50;0.50;;;21.80;66.20;;;;;;5030154;28;20033;-35
2021/07/13 03:37:50;;;;;;;0.52;0.50;;;21.80;65.90;;;;;;5045597;28;20029;-32
2021/07/13 03:40:16;;;;;;;0.70;0.70;;;21.80;66.40;;;;;;5066104;28;20031;-29
2021/07/13 03:42:46;;;;;;;0.70;0.70;;;21.70;66.00;;;;;;5050596;28;20031;-36
2021/07/13 03:45:15;;;;;;;0.70;0.50;;;21.80;65.90;;;;;;5057166;28;20486;-34
2021/07/13 03:47:50;;;;;;;0.70;0.60;;;21.80;66.20;;;;;;5057076;28;20041;-32
2021/07/13 03:50:20;;;;;;;0.50;0.50;;;21.80;65.80;;;;;;5060478;28;20055;-30
2021/07/13 03:52:45;;;;;;;0.60;0.57;;;21.80;65.90;;;;;;5060391;28;20029;-30
2021/07/13 03:55:12;;;;;;;0.47;0.47;;;21.80;66.30;;;;;;5058335;28;20541;-30
2021/07/13 03:57:38;;;;;;;0.50;0.50;;;21.70;66.10;;;;;;5071694;28;20027;-32
2021/07/13 04:00:09;;;;;;;0.60;0.60;;;21.80;65.50;;;;;;5069039;28;20496;-29
2021/07/13 04:02:34;;;;;;;0.50;0.50;;;21.80;65.90;;;;;;5062137;28;20474;-30
2021/07/13 04:05:00;;;;;;;0.50;0.50;;;21.80;65.70;;;;;;5065492;28;20066;-30
2021/07/13 04:07:26;;;;;;;0.40;0.40;;;21.70;66.20;;;;;;5060971;28;20020;-30
2021/07/13 04:09:51;;;;;;;0.60;0.60;;;21.80;66.40;;;;;;5055832;28;20060;-31
2021/07/13 04:12:17;;;;;;;0.55;0.50;;;21.70;66.10;;;;;;5059123;28;20136;-30
2021/07/13 04:14:42;;;;;;;0.60;0.60;;;21.70;66.20;;;;;;5064496;28;20050;-30
2021/07/13 04:17:08;;;;;;;0.60;0.60;;;21.70;66.00;;;;;;5066912;28;20037;-32
2021/07/13 04:19:33;;;;;;;0.50;0.50;;;21.70;66.40;;;;;;5068780;28;20090;-32
2021/07/13 04:21:59;;;;;;;1.20;0.75;;;21.80;66.80;;;;;;5053702;28;20031;-37
2021/07/13 04:24:24;;;;;;;0.60;0.60;;;21.80;66.20;;;;;;5072051;28;20025;-34
2021/07/13 04:26:50;;;;;;;0.40;0.40;;;21.80;66.30;;;;;;5071192;28;20067;-31
2021/07/13 04:29:16;;;;;;;0.45;0.40;;;21.80;66.50;;;;;;5070768;28;20402;-27
2021/07/13 04:31:41;;;;;;;0.45;0.45;;;21.70;66.40;;;;;;5070618;28;20115;-34
2021/07/13 04:34:09;;;;;;;0.57;0.57;;;21.80;66.40;;;;;;5068108;28;20017;-34
2021/07/13 04:36:35;;;;;;;0.60;0.60;;;21.70;66.50;;;;;;5069498;28;20028;-31
2021/07/13 04:39:01;;;;;;;0.57;0.57;;;21.70;66.70;;;;;;5071898;28;20089;-36
2021/07/13 04:41:26;;;;;;;0.68;0.50;;;21.70;66.90;;;;;;5070036;28;20478;-33
2021/07/13 04:43:52;;;;;;;0.73;0.63;;;21.70;67.00;;;;;;5070260;28;20033;-31
2021/07/13 04:46:17;;;;;;;0.40;0.40;;;21.70;66.90;;;;;;5070341;28;20036;-27
2021/07/13 04:48:43;;;;;;;0.40;0.40;;;21.70;67.10;;;;;;5070315;28;20032;-35
2021/07/13 04:51:09;;;;;;;0.40;0.40;;;21.70;67.10;;;;;;5073089;28;20052;-31
2021/07/13 04:53:34;;;;;;;0.40;0.40;;;21.70;66.80;;;;;;5069331;28;20113;-33
2021/07/13 04:56:00;;;;;;;1.23;0.60;;;21.70;67.00;;;;;;5068656;28;20040;-35
2021/07/13 04:58:26;;;;;;;0.52;0.52;;;21.70;67.00;;;;;;5069958;28;20109;-31
2021/07/13 05:00:52;;;;;;;0.50;0.50;;;21.70;67.40;;;;;;5069212;28;20039;-35
2021/07/13 05:03:18;;;;;;;0.60;0.60;;;21.70;67.00;;;;;;5068926;28;20028;-31
2021/07/13 05:05:43;;;;;;;0.55;0.55;;;21.70;67.60;;;;;;5062118;28;20029;-35
2021/07/13 05:08:09;;;;;;;0.60;0.50;;;21.80;67.50;;;;;;5057312;28;20375;-34
2021/07/13 05:10:35;;;;;;;1.20;0.50;;;21.70;67.40;;;;;;5058572;28;20110;-29
2021/07/13 05:13:00;;;;;;;0.50;0.50;;;21.70;67.40;;;;;;5056126;28;20031;-29
2021/07/13 05:15:26;;;;;;;0.50;0.50;;;21.70;67.40;;;;;;5065582;28;20028;-33
2021/07/13 05:17:51;;;;;;;0.73;0.73;;;21.70;67.70;;;;;;5057803;28;20494;-32
2021/07/13 05:20:17;;;;;;;0.55;0.50;;;21.70;67.80;;;;;;5066033;28;20029;-32
2021/07/13 05:22:43;;;;;;;0.50;0.50;;;21.70;67.70;;;;;;5067209;28;20037;-28
2021/07/13 05:25:11;;;;;;;0.40;0.40;;;21.70;67.70;;;;;;5056132;28;20024;-34
2021/07/13 05:27:40;;;;;;;0.50;0.50;;;21.70;67.70;;;;;;5056934;28;20141;-27
2021/07/13 05:30:07;;;;;;;0.50;0.50;;;21.70;67.60;;;;;;5057864;28;20492;-28
2021/07/13 05:32:32;;;;;;;0.60;0.60;;;21.70;67.70;;;;;;5048486;28;20078;-31
2021/07/13 05:34:58;;;;;;;0.43;0.43;;;21.70;68.10;;;;;;5066266;28;20519;-30
2021/07/13 05:37:23;;;;;;;0.40;0.40;;;21.70;68.00;;;;;;5059968;28;20051;-32
2021/07/13 05:39:49;;;;;;;0.50;0.50;;;21.70;68.10;;;;;;5054031;28;20424;-31
2021/07/13 05:42:14;;;;;;;0.55;0.55;;;21.70;68.00;;;;;;5057706;28;20115;-28
2021/07/13 05:44:40;;;;;;;0.60;0.60;;;21.70;68.30;;;;;;5041927;28;20032;-34
2021/07/13 05:47:06;;;;;;;0.50;0.50;;;21.70;68.20;;;;;;5039835;28;20163;-33
2021/07/13 05:49:31;;;;;;;0.60;0.60;;;21.70;68.30;;;;;;5060728;28;20020;-27
2021/07/13 05:51:57;;;;;;;1.23;0.50;;;21.70;68.00;;;;;;5055702;28;20465;-31
2021/07/13 05:54:22;;;;;;;0.98;0.70;;;21.70;68.20;;;;;;5069073;28;20025;-29
2021/07/13 05:56:48;;;;;;;0.70;0.60;;;21.70;68.40;;;;;;5057437;28;20128;-32
2021/07/13 05:59:13;;;;;;;0.40;0.40;;;21.70;68.40;;;;;;5059035;28;20482;-32
2021/07/13 06:01:39;;;;;;;0.50;0.50;;;21.70;68.50;;;;;;5059885;28;20114;-29
2021/07/13 06:04:05;;;;;;;0.57;0.45;;;21.70;68.40;;;;;;5068186;28;20028;-31
2021/07/13 06:06:31;;;;;;;2.58;0.60;;;21.70;68.30;;;;;;5066613;28;20020;-35
2021/07/13 06:08:56;;;;;;;0.50;0.50;;;21.70;68.70;;;;;;5064023;28;20028;-36
2021/07/13 06:11:22;;;;;;;0.43;0.43;;;21.70;68.70;;;;;;5056893;28;20665;-34
2021/07/13 06:13:47;;;;;;;0.50;0.50;;;21.70;68.60;;;;;;5057277;28;20060;-32
2021/07/13 06:16:13;;;;;;;0.73;0.65;;;21.70;68.70;;;;;;5063674;28;20509;-31
2021/07/13 06:18:38;;;;;;;1.83;0.88;;;21.80;68.30;;;;;;5054340;28;20490;-33
2021/07/13 06:21:05;;;;;;;0.70;0.70;;;21.90;68.20;;;;;;5065050;28;20043;-34
2021/07/13 06:23:31;;;;;;;0.55;0.55;;;21.90;68.30;;;;;;5063381;28;20112;-33
2021/07/13 06:25:57;;;;;;;1.13;0.60;;;21.90;68.30;;;;;;5062903;28;20119;-30
2021/07/13 06:28:22;;;;;;;0.68;0.60;;;22.00;69.20;;;;;;5066874;28;20063;-31
2021/07/13 06:30:48;;;;;;;0.70;0.70;;;22.00;68.80;;;;;;5042602;28;20024;-30
2021/07/13 06:33:13;;;;;;;0.80;0.80;;;21.90;69.20;;;;;;5056208;28;20470;-27
2021/07/13 06:35:41;;;;;;;0.90;0.80;;;21.90;70.30;;;;;;5048766;28;20044;-29
2021/07/13 06:38:06;;;;;;;0.85;0.85;;;21.90;70.80;;;;;;5048104;28;20055;-32
2021/07/13 06:40:32;;;;;;;1.08;0.98;;;22.00;71.50;;;;;;5067414;28;20060;-28
2021/07/13 06:42:58;;;;;;;1.00;1.00;;;21.90;71.50;;;;;;5049023;28;20020;-33
2021/07/13 06:45:23;;;;;;;1.77;1.23;;;22.00;72.30;;;;;;5059839;28;20029;-31
2021/07/13 06:47:54;;;;;;;1.40;1.00;;;22.00;73.20;;;;;;5066494;28;20081;-29
2021/07/13 06:50:23;;;;;;;1.35;1.00;;;22.00;73.60;;;;;;5065150;28;20036;-32
2021/07/13 06:52:50;;;;;;;1.17;1.08;;;22.00;71.30;;;;;;5065419;28;20120;-28
2021/07/13 06:55:15;;;;;;;1.40;1.15;;;21.90;71.70;;;;;;5066427;28;20031;-31
2021/07/13 06:57:41;;;;;;;1.10;1.00;;;21.90;71.90;;;;;;5053751;28;20036;-31
2021/07/13 07:00:07;;;;;;;1.30;1.20;;;21.90;72.60;;;;;;5056254;28;20075;-30
2021/07/13 07:02:33;;;;;;;1.20;1.10;;;21.90;72.20;;;;;;5062109;28;20036;-30
2021/07/13 07:04:59;;;;;;;1.00;0.80;;;21.90;72.30;;;;;;5062317;28;20404;-30
2021/07/13 07:07:24;;;;;;;1.00;1.00;;;21.90;72.50;;;;;;5063195;28;20025;-32
2021/07/13 07:09:50;;;;;;;1.10;1.10;;;21.90;72.50;;;;;;5069306;28;20029;-35
2021/07/13 07:12:16;;;;;;;1.00;1.00;;;21.90;72.50;;;;;;5068364;28;20116;-37
2021/07/13 07:14:41;;;;;;;2.50;1.00;;;21.90;72.50;;;;;;5060847;28;20042;-33
2021/07/13 07:17:07;;;;;;;2.17;1.10;;;21.90;71.70;;;;;;5057545;28;20501;-31
2021/07/13 07:19:33;;;;;;;1.35;1.10;;;21.90;71.80;;;;;;5055286;28;20021;-32
2021/07/13 07:21:58;;;;;;;9.43;1.42;;;21.90;72.50;;;;;;5066703;28;20032;-29
2021/07/13 07:24:24;;;;;;;1.30;1.20;;;21.90;72.30;;;;;;5069579;28;20098;-29
2021/07/13 07:26:49;;;;;;;1.23;1.13;;;21.90;72.50;;;;;;5068385;28;20056;-37
2021/07/13 07:29:15;;;;;;;0.90;0.90;;;21.90;72.20;;;;;;5068181;28;20520;-28
2021/07/13 07:31:41;;;;;;;1.40;1.13;;;21.90;71.90;;;;;;5065889;28;20020;-33
2021/07/13 07:34:06;;;;;;;1.17;1.08;;;21.90;72.30;;;;;;5069635;28;20025;-32
2021/07/13 07:36:32;;;;;;;1.25;1.10;;;21.90;71.40;;;;;;5071502;28;20032;-33
2021/07/13 07:38:57;;;;;;;0.90;0.90;;;21.90;71.90;;;;;;5071341;28;20048;-38
2021/07/13 07:41:23;;;;;;;1.10;1.10;;;21.90;71.90;;;;;;5067022;28;20035;-29
2021/07/13 07:43:49;;;;;;;1.50;1.40;;;21.90;71.90;;;;;;5068624;28;20032;-35
2021/07/13 07:46:15;;;;;;;0.85;0.85;;;21.90;71.80;;;;;;5060196;28;20039;-31
2021/07/13 07:48:40;;;;;;;1.00;1.00;;;21.90;71.70;;;;;;5057458;28;20291;-33
2021/07/13 07:51:06;;;;;;;1.90;1.20;;;21.90;71.60;;;;;;5060576;28;20580;-37
2021/07/13 07:53:32;;;;;;;0.90;0.90;;;21.90;71.60;;;;;;5049199;28;20020;-37
2021/07/13 07:55:57;;;;;;;0.95;0.95;;;21.90;71.40;;;;;;5068504;28;20111;-29
2021/07/13 07:58:23;;;;;;;1.25;1.15;;;21.90;71.60;;;;;;5059492;28;20505;-31
2021/07/13 08:00:48;;;;;;;1.35;1.10;;;22.00;70.50;;;;;;5058959;28;20104;-36
2021/07/13 08:03:14;;;;;;;1.10;1.10;;;22.00;69.90;;;;;;5061258;28;20056;-28
2021/07/13 08:05:40;;;;;;;1.30;1.10;;;22.00;70.10;;;;;;5060298;28;20059;-31
2021/07/13 08:08:07;;;;;;;1.20;1.20;;;21.90;70.10;;;;;;5063250;28;20438;-34
2021/07/13 08:10:32;;;;;;;0.98;0.98;;;21.90;70.70;;;;;;5065000;28;20072;-32
2021/07/13 08:12:59;;;;;;;1.38;1.15;;;21.90;70.70;;;;;;5066062;28;20060;-35
2021/07/13 08:15:26;;;;;;;1.10;1.10;;;21.90;70.50;;;;;;5047794;28;20793;-31
2021/07/13 08:17:52;;;;;;;1.20;0.98;;;21.90;70.80;;;;;;5066727;28;20036;-31
2021/07/13 08:20:17;;;;;;;1.02;1.02;;;21.90;71.10;;;;;;5063592;28;20020;-29
2021/07/13 08:22:46;;;;;;;1.00;1.00;;;21.90;70.60;;;;;;5068311;28;20086;-31
2021/07/13 08:25:11;;;;;;;1.05;1.05;;;21.90;70.70;;;;;;5069309;28;20036;-31
2021/07/13 08:27:37;;;;;;;1.25;1.17;;;21.90;70.60;;;;;;5071685;28;20028;-34
2021/07/13 08:30:04;;;;;;;1.42;1.33;;;21.90;70.60;;;;;;5059768;28;20036;-31
2021/07/13 08:32:30;;;;;;;0.90;0.90;;;21.90;70.60;;;;;;5056114;28;20477;-31
2021/07/13 08:34:55;;;;;;;1.48;1.10;;;21.90;70.40;;;;;;5061351;28;20028;-28
2021/07/13 08:37:21;;;;;;;0.90;0.90;;;21.90;70.30;;;;;;5075597;28;20534;-33
2021/07/13 08:39:48;;;;;;;1.00;1.00;;;21.90;70.40;;;;;;5056206;28;20036;-31
2021/07/13 08:42:14;;;;;;;0.80;0.80;;;21.90;70.10;;;;;;5077454;28;20028;-33
2021/07/13 08:44:40;;;;;;;1.20;1.10;;;21.90;70.30;;;;;;5051051;28;20040;-30
2021/07/13 08:47:05;;;;;;;1.20;1.10;;;21.90;70.20;;;;;;5033965;28;20024;-34
2021/07/13 08:49:31;;;;;;;1.10;1.10;;;21.90;70.40;;;;;;5060221;28;20036;-31
2021/07/13 08:51:56;;;;;;;0.95;0.95;;;21.90;69.90;;;;;;5055232;28;20102;-31
2021/07/13 08:54:22;;;;;;;1.23;0.90;;;21.90;70.20;;;;;;5062551;28;20025;-36
2021/07/13 08:56:48;;;;;;;1.23;1.13;;;21.90;70.20;;;;;;5067671;28;20064;-31
2021/07/13 08:59:14;;;;;;;1.55;0.88;;;21.90;70.20;;;;;;5067541;28;20118;-32
2021/07/13 09:01:39;;;;;;;1.00;0.90;;;21.90;70.00;;;;;;5049685;28;20031;-29
2021/07/13 09:04:05;;;;;;;2.50;1.20;;;21.90;70.20;;;;;;5072534;28;20042;-37
2021/07/13 09:06:53;;;;;;;2.35;1.10;;;21.90;70.00;;;;;;5066457;28;20031;-29
2021/07/13 09:09:29;;;;;;;1.52;1.42;;;21.90;70.00;;;;;;5067002;28;20489;-33
2021/07/13 09:12:15;;;;;;;1.00;1.00;;;21.90;70.10;;;;;;5041661;28;20494;-31
2021/07/13 09:15:08;;;;;;;0.88;0.88;;;21.90;70.10;;;;;;5060007;28;20055;-34
2021/07/13 09:17:44;;;;;;;1.30;1.13;;;21.90;70.10;;;;;;5060359;28;20047;-31
2021/07/13 09:20:21;;;;;;;0.90;0.90;;;21.90;70.10;;;;;;5066248;28;20481;-31
2021/07/13 09:23:03;;;;;;;1.00;1.00;;;21.90;70.00;;;;;;5063338;28;20039;-33
2021/07/13 09:25:35;;;;;;;1.10;1.10;;;21.90;70.00;;;;;;5038769;28;20501;-31
2021/07/13 09:28:10;;;;;;;0.93;0.93;;;21.90;69.90;;;;;;5069775;28;20063;-38
2021/07/13 09:30:37;;;;;;;0.90;0.90;;;22.00;69.90;;;;;;5067425;28;20052;-30
2021/07/13 09:33:18;;;;;;;1.00;1.00;;;21.90;69.80;;;;;;5057473;28;20029;-34
2021/07/13 09:36:16;;;;;;;1.23;1.20;;;21.90;70.20;;;;;;5060330;28;20053;-41
2021/07/13 09:38:54;;;;;;;1.58;1.48;;;21.90;70.40;;;;;;4953870;28;20046;-31
2021/07/13 09:41:21;;;;;;;1.38;1.38;;;21.90;70.30;;;;;;4968107;28;20043;-35
2021/07/13 09:43:56;;;;;;;2.53;1.98;;;21.90;70.20;;;;;;4969319;28;20027;-30
2021/07/13 09:46:27;;;;;;;2.40;1.77;;;21.90;70.20;;;;;;4970428;28;20516;-32
2021/07/13 09:49:25;;;;;;;2.65;1.80;;;21.80;70.20;;;;;;4956577;28;20169;-34
2021/07/13 09:51:54;;;;;;;1.60;1.50;;;21.80;70.50;;;;;;4933415;29;20543;-32
2021/07/13 09:54:34;;;;;;;2.00;1.90;;;21.90;70.30;;;;;;4930099;29;20168;-35
2021/07/13 09:57:02;;;;;;;1.85;1.70;;;21.90;70.00;;;;;;4930805;29;20167;-33
2021/07/13 09:59:28;;;;;;;3.10;1.50;;;22.00;70.40;;;;;;4932760;29;20441;-37
2021/07/13 10:01:54;;;;;;;1.50;1.40;;;22.00;70.40;;;;;;4931755;29;20055;-36
2021/07/13 10:04:20;;;;;;;1.25;1.15;;;22.00;70.50;;;;;;4933003;29;20036;-33
2021/07/13 10:06:46;;;;;;;1.75;1.65;;;22.00;70.70;;;;;;4932366;29;20162;-32
2021/07/13 10:09:11;;;;;;;1.98;1.88;;;22.00;69.60;;;;;;4904886;29;20205;-30
2021/07/13 10:11:41;;;;;;;2.25;1.65;;;22.00;69.80;;;;;;4905490;29;20047;-33
2021/07/13 10:14:07;;;;;;;1.83;1.73;;;22.10;69.40;;;;;;4930151;28;20586;-35
2021/07/13 10:16:33;;;;;;;1.90;1.80;;;22.10;69.50;;;;;;4991914;28;20046;-33
2021/07/13 10:18:59;;;;;;;2.13;2.03;;;22.10;69.80;;;;;;4992051;28;20038;-33
2021/07/13 10:21:25;;;;;;;2.35;1.80;;;22.10;69.70;;;;;;4975381;28;21360;-31
2021/07/13 10:23:52;;;;;;;1.45;1.45;;;22.10;69.60;;;;;;4992376;28;20046;-29
2021/07/13 10:26:47;;;;;;;1.60;1.50;;;22.10;69.90;;;;;;4993364;28;21542;-38
2021/07/13 10:29:32;;;;;;;1.80;1.70;;;22.10;69.90;;;;;;5062900;28;20032;-31
2021/07/13 10:32:16;;;;;;;1.55;1.45;;;22.10;70.00;;;;;;5062587;28;20032;-35
2021/07/13 10:34:59;;;;;;;1.90;1.77;;;22.10;70.10;;;;;;5061960;28;20084;-39
2021/07/13 10:37:35;;;;;;;1.23;1.23;;;22.20;69.90;;;;;;5062883;28;20093;-31
2021/07/13 10:40:03;;;;;;;1.55;1.45;;;22.40;69.30;;;;;;5061529;28;20090;-35
2021/07/13 10:42:44;;;;;;;2.15;1.60;;;22.30;69.30;;;;;;5062193;28;20028;-35
2021/07/13 10:45:42;;;;;;;2.00;1.90;;;22.40;69.40;;;;;;5062447;28;20149;-32
2021/07/13 10:48:34;;;;;;;1.50;1.50;;;22.40;69.60;;;;;;5060970;28;20077;-35
2021/07/13 10:51:05;;;;;;;7.72;1.85;;;22.40;69.50;;;;;;5054283;28;20047;-35
2021/07/13 10:53:31;;;;;;;1.80;1.70;;;22.50;69.50;;;;;;5058138;28;20028;-32
2021/07/13 10:56:07;;;;;;;6.15;2.10;;;22.50;69.40;;;;;;5057852;28;20037;-30
2021/07/13 10:58:41;;;;;;;1.85;1.70;;;22.50;69.30;;;;;;5058139;28;20028;-27
2021/07/13 11:01:08;;;;;;;2.33;1.85;;;22.50;69.40;;;;;;5059846;28;20028;-32
2021/07/13 11:03:37;;;;;;;2.25;1.60;;;22.50;70.00;;;;;;5057891;28;20062;-38
2021/07/13 11:06:09;;;;;;;3.05;1.80;;;22.50;70.00;;;;;;5059505;28;20041;-38
2021/07/13 11:08:51;;;;;;;2.35;1.95;;;22.50;69.80;;;;;;5060981;28;20762;-32
2021/07/13 11:11:22;;;;;;;2.28;1.88;;;22.60;69.90;;;;;;5059369;28;20079;-31
2021/07/13 11:13:49;;;;;;;2.55;1.60;;;22.60;69.90;;;;;;5056990;28;20040;-34
2021/07/13 11:16:15;;;;;;;1.55;1.45;;;22.60;69.60;;;;;;5059954;28;20047;-31
2021/07/13 11:18:41;;;;;;;1.60;1.45;;;22.80;69.50;;;;;;5058946;28;20127;-40
2021/07/13 11:21:14;;;;;;;2.95;1.92;;;22.80;69.00;;;;;;5060099;28;20042;-38
2021/07/13 11:23:40;;;;;;;4.30;1.77;;;22.80;69.00;;;;;;5063900;28;20042;-31
2021/07/13 11:26:06;;;;;;;2.42;1.65;;;22.80;69.00;;;;;;5059790;28;20032;-29
2021/07/13 11:28:32;;;;;;;1.83;1.73;;;22.80;69.20;;;;;;5042643;28;20025;-28
2021/07/13 11:30:59;;;;;;;1.50;1.40;;;22.80;69.20;;;;;;5042613;28;20029;-34
2021/07/13 11:33:27;;;;;;;3.08;1.80;;;22.80;69.10;;;;;;5045473;28;20058;-36
2021/07/13 11:35:54;;;;;;;5.72;1.52;;;23.00;69.60;;;;;;5060152;28;20068;-40
2021/07/13 11:38:30;;;;;;;2.05;1.60;;;23.00;69.60;;;;;;5057663;28;20035;-38
2021/07/13 11:41:15;;;;;;;2.10;1.90;;;23.00;69.70;;;;;;5060072;28;20098;-28
2021/07/13 11:43:41;;;;;;;3.63;1.90;;;22.90;70.30;;;;;;5061128;28;20781;-29
2021/07/13 11:46:11;;;;;;;1.90;1.77;;;22.80;70.50;;;;;;5058150;28;20044;-28
2021/07/13 11:48:38;;;;;;;3.38;1.92;;;22.80;70.50;;;;;;5058032;28;20575;-34
2021/07/13 11:51:03;;;;;;;1.75;1.65;;;22.90;70.10;;;;;;5054589;28;20381;-33
2021/07/13 11:53:31;;;;;;;1.90;1.80;;;23.00;69.40;;;;;;4704542;28;10000397;-29
2021/07/13 11:55:59;;;;;;;2.10;2.00;;;23.10;69.60;;;;;;5054277;28;20056;-30
2021/07/13 11:58:28;;;;;;;1.95;1.85;;;23.00;70.00;;;;;;5056295;28;20089;-36
2021/07/13 12:01:15;;;;;;;2.10;2.00;;;23.00;69.60;;;;;;5052890;28;20079;-31
2021/07/13 12:03:41;;;;;;;2.05;1.80;;;23.00;69.60;;;;;;5055788;28;20571;-33
2021/07/13 12:06:14;;;;;;;2.15;2.05;;;23.00;69.30;;;;;;5056253;28;20089;-36
2021/07/13 12:08:40;;;;;;;1.67;1.63;;;22.90;69.20;;;;;;5051399;28;20043;-32
2021/07/13 12:11:06;;;;;;;1.88;1.67;;;22.90;69.10;;;;;;5017498;28;20052;-34
2021/07/13 12:13:32;;;;;;;2.92;1.80;;;23.00;69.00;;;;;;5058960;28;20800;-35
2021/07/13 12:16:34;;;;;;;2.88;1.90;;;23.00;68.60;;;;;;5038077;28;20085;-31
2021/07/13 12:19:04;;;;;;;2.30;2.17;;;23.20;68.10;;;;;;4988778;28;20041;-40
2021/07/13 12:21:30;;;;;;;2.05;1.95;;;23.20;68.00;;;;;;4985224;28;20094;-40
2021/07/13 12:23:57;;;;;;;2.00;1.90;;;23.20;67.70;;;;;;4989380;28;20040;-29
2021/07/13 12:26:29;;;;;;;2.75;2.22;;;23.10;67.80;;;;;;4990440;28;20431;-29
2021/07/13 12:29:08;;;;;;;2.00;1.90;;;23.20;67.60;;;;;;4996850;28;20085;-32
2021/07/13 12:31:43;;;;;;;2.00;1.90;;;23.10;67.70;;;;;;4996192;28;20030;-29
2021/07/13 12:34:16;;;;;;;2.58;2.10;;;23.00;68.00;;;;;;5001601;28;20036;-33
2021/07/13 12:36:42;;;;;;;2.78;1.83;;;22.90;68.10;;;;;;5002033;28;20953;-32
2021/07/13 12:39:23;;;;;;;2.47;2.28;;;22.90;68.00;;;;;;4997304;28;20745;-31
2021/07/13 12:42:09;;;;;;;2.30;2.20;;;22.90;67.60;;;;;;4999026;28;20041;-28
2021/07/13 12:44:46;;;;;;;2.00;1.90;;;22.90;67.70;;;;;;4997620;28;20120;-34
2021/07/13 12:47:26;;;;;;;2.00;1.90;;;22.90;67.10;;;;;;4997988;28;20077;-31
2021/07/13 12:50:04;;;;;;;2.10;2.00;;;22.80;67.20;;;;;;4995577;28;20038;-34
2021/07/13 12:52:33;;;;;;;2.58;2.22;;;22.70;67.20;;;;;;5011803;28;20132;-29
2021/07/13 12:55:00;;;;;;;2.20;2.00;;;22.80;67.10;;;;;;5055935;28;20063;-28